createdAt,value
2018-12-16T00:01:52.430Z,12.43
2018-12-16T00:04:28.993Z,12.43
2018-12-16T00:07:06.073Z,14.33
2018-12-16T00:09:43.033Z,14.03
2018-12-16T00:12:20.029Z,12.57
2018-12-16T00:14:56.820Z,13.47
2018-12-16T00:17:34.331Z,12.07
2018-12-16T00:20:14.874Z,13.10
2018-12-16T00:22:51.488Z,11.80
2018-12-16T00:25:28.525Z,11.73
2018-12-16T00:28:05.476Z,13.97
2018-12-16T00:30:42.949Z,12.17
2018-12-16T00:33:19.495Z,12.57
2018-12-16T00:35:55.653Z,13.47
2018-12-16T00:38:32.455Z,13.27
2018-12-16T00:41:09.497Z,13.70
2018-12-16T00:43:46.754Z,14.97
2018-12-16T00:46:24.090Z,20.70
2018-12-16T00:49:01.336Z,21.60
2018-12-16T00:51:38.084Z,19.43
2018-12-16T00:54:15.431Z,17.63
2018-12-16T00:56:52.528Z,16.57
2018-12-16T00:59:29.497Z,16.07
2018-12-16T01:02:08.188Z,15.33
2018-12-16T01:04:45.361Z,15.30
2018-12-16T01:07:22.468Z,16.00
2018-12-16T01:09:59.642Z,17.40
2018-12-16T01:12:37.091Z,15.77
2018-12-16T01:15:13.904Z,15.40
2018-12-16T01:17:52.058Z,18.37
2018-12-16T01:20:28.719Z,15.47
2018-12-16T01:23:05.708Z,16.63
2018-12-16T01:25:42.903Z,15.67
2018-12-16T01:28:20.014Z,17.40
2018-12-16T01:30:56.831Z,18.03
2018-12-16T01:33:34.203Z,18.93
2018-12-16T01:36:12.039Z,16.93
2018-12-16T01:38:49.959Z,15.83
2018-12-16T01:41:27.086Z,17.73
2018-12-16T01:44:04.434Z,16.57
2018-12-16T01:46:41.439Z,17.90
2018-12-16T01:49:18.614Z,16.33
2018-12-16T01:51:55.444Z,16.53
2018-12-16T01:54:32.531Z,18.00
2018-12-16T01:57:09.491Z,16.00
2018-12-16T01:59:46.242Z,15.63
2018-12-16T02:02:23.657Z,18.13
2018-12-16T02:05:01.290Z,16.70
2018-12-16T02:07:39.658Z,16.47
2018-12-16T02:10:17.279Z,15.03
2018-12-16T02:12:54.583Z,14.87
2018-12-16T02:15:31.753Z,17.80
2018-12-16T02:18:08.188Z,15.70
2018-12-16T02:20:44.476Z,18.83
2018-12-16T02:23:20.880Z,16.07
2018-12-16T02:25:57.213Z,17.80
2018-12-16T02:28:33.752Z,17.00
2018-12-16T02:31:10.659Z,17.53
2018-12-16T02:33:46.469Z,19.60
2018-12-16T02:36:22.170Z,18.40
2018-12-16T02:38:57.837Z,19.13
2018-12-16T02:41:33.981Z,18.60
2018-12-16T02:44:10.318Z,19.83
2018-12-16T02:46:46.467Z,20.33
2018-12-16T02:49:22.365Z,21.90
2018-12-16T02:51:58.146Z,18.83
2018-12-16T02:54:34.075Z,18.37
2018-12-16T02:57:10.095Z,19.23
2018-12-16T02:59:46.177Z,17.87
2018-12-16T03:02:22.029Z,20.27
2018-12-16T03:04:58.237Z,20.67
2018-12-16T03:07:33.972Z,21.17
2018-12-16T03:10:09.915Z,21.93
2018-12-16T03:12:45.755Z,20.00
2018-12-16T03:15:21.529Z,18.77
2018-12-16T03:17:57.338Z,18.43
2018-12-16T03:20:32.871Z,18.93
2018-12-16T03:23:12.297Z,23.23
2018-12-16T03:25:45.644Z,19.93
2018-12-16T03:28:21.452Z,21.63
2018-12-16T03:30:57.304Z,21.63
2018-12-16T03:33:32.932Z,20.13
2018-12-16T03:36:08.675Z,20.60
2018-12-16T03:38:44.105Z,20.93
2018-12-16T03:41:19.759Z,21.70
2018-12-16T03:43:55.196Z,21.83
2018-12-16T03:46:30.676Z,21.80
2018-12-16T03:49:05.922Z,23.73
2018-12-16T03:51:41.161Z,24.83
2018-12-16T03:54:16.131Z,24.40
2018-12-16T03:56:51.176Z,23.53
2018-12-16T03:59:26.419Z,25.00
2018-12-16T04:02:01.604Z,22.67
2018-12-16T04:04:36.673Z,25.80
2018-12-16T04:07:11.851Z,24.63
2018-12-16T04:09:47.205Z,26.87
2018-12-16T04:12:22.488Z,27.97
2018-12-16T04:14:57.588Z,31.97
2018-12-16T04:17:32.698Z,26.80
2018-12-16T04:20:07.900Z,28.93
2018-12-16T04:22:42.907Z,27.93
2018-12-16T04:25:18.014Z,28.33
2018-12-16T04:27:53.125Z,27.10
2018-12-16T04:30:27.972Z,26.97
2018-12-16T04:33:03.203Z,31.50
2018-12-16T04:35:38.418Z,31.57
2018-12-16T04:38:13.363Z,31.37
2018-12-16T04:40:48.153Z,33.25
2018-12-16T04:43:22.831Z,32.50
2018-12-16T04:45:57.432Z,30.53
2018-12-16T04:48:32.112Z,31.73
2018-12-16T04:51:06.646Z,31.03
2018-12-16T04:53:41.461Z,32.47
2018-12-16T04:56:16.077Z,30.57
2018-12-16T04:58:50.782Z,29.60
2018-12-16T05:01:25.427Z,30.70
2018-12-16T05:04:00.021Z,28.73
2018-12-16T05:06:34.533Z,32.03
2018-12-16T05:09:09.184Z,31.97
2018-12-16T05:11:43.762Z,32.90
2018-12-16T05:14:18.266Z,28.63
2018-12-16T05:16:52.847Z,30.17
2018-12-16T05:19:27.513Z,30.63
2018-12-16T05:22:02.056Z,30.60
2018-12-16T05:24:36.576Z,31.93
2018-12-16T05:27:11.139Z,30.20
2018-12-16T05:29:45.670Z,32.97
2018-12-16T05:32:20.112Z,31.73
2018-12-16T05:34:54.564Z,30.97
2018-12-16T05:37:29.038Z,29.33
2018-12-16T05:40:03.700Z,28.17
2018-12-16T05:42:38.184Z,30.63
2018-12-16T05:45:12.723Z,30.90
2018-12-16T05:47:47.199Z,31.43
2018-12-16T05:50:21.654Z,27.40
2018-12-16T05:52:56.062Z,30.27
2018-12-16T05:55:30.331Z,31.93
2018-12-16T05:58:11.507Z,32.57
2018-12-16T06:00:46.378Z,32.00
2018-12-16T06:03:21.401Z,28.47
2018-12-16T06:05:56.308Z,30.13
2018-12-16T06:08:31.310Z,29.77
2018-12-16T06:11:06.616Z,30.93
2018-12-16T06:13:41.774Z,35.57
2018-12-16T06:16:16.951Z,33.40
2018-12-16T06:18:52.955Z,31.53
2018-12-16T06:21:28.237Z,31.00
2018-12-16T06:24:03.609Z,31.53
2018-12-16T06:26:38.900Z,31.37
2018-12-16T06:29:14.229Z,30.87
2018-12-16T06:31:49.761Z,32.43
2018-12-16T06:34:25.864Z,33.00
2018-12-16T06:37:00.686Z,27.43
2018-12-16T06:39:35.423Z,28.60
2018-12-16T06:42:11.317Z,25.37
2018-12-16T06:44:46.421Z,26.37
2018-12-16T06:47:31.305Z,27.50
2018-12-16T06:50:10.883Z,25.10
2018-12-16T06:52:48.062Z,26.67
2018-12-16T06:55:25.934Z,26.37
2018-12-16T06:58:03.734Z,27.17
2018-12-16T07:00:42.641Z,26.03
2018-12-16T07:03:22.235Z,24.23
2018-12-16T07:06:09.002Z,24.50
2018-12-16T07:08:47.266Z,24.30
2018-12-16T07:11:24.408Z,22.20
2018-12-16T07:14:01.326Z,23.17
2018-12-16T07:16:40.717Z,24.30
2018-12-16T07:19:17.924Z,24.30
2018-12-16T07:21:56.669Z,24.83
2018-12-16T07:24:32.882Z,22.23
2018-12-16T07:27:10.000Z,25.10
2018-12-16T07:29:47.086Z,25.53
2018-12-16T07:32:24.062Z,24.87
2018-12-16T07:35:04.521Z,23.20
2018-12-16T07:37:47.674Z,24.33
2018-12-16T07:40:24.251Z,22.00
2018-12-16T07:42:58.646Z,24.73
2018-12-16T07:45:33.536Z,26.53
2018-12-16T07:48:08.402Z,21.83
2018-12-16T07:50:42.847Z,22.37
2018-12-16T07:53:17.175Z,21.13
2018-12-16T07:55:51.567Z,24.67
2018-12-16T07:58:25.832Z,23.40
2018-12-16T08:01:00.248Z,21.07
2018-12-16T08:03:35.059Z,22.13
2018-12-16T08:06:09.377Z,24.50
2018-12-16T08:08:44.189Z,25.23
2018-12-16T08:11:18.667Z,23.33
2018-12-16T08:13:53.052Z,21.77
2018-12-16T08:16:27.544Z,23.80
2018-12-16T08:19:06.966Z,21.83
2018-12-16T08:21:38.279Z,22.43
2018-12-16T08:24:12.573Z,22.57
2018-12-16T08:26:46.923Z,19.87
2018-12-16T08:29:22.471Z,20.30
2018-12-16T08:31:57.062Z,20.13
2018-12-16T08:34:31.368Z,17.93
2018-12-16T08:37:05.687Z,22.67
2018-12-16T08:39:40.009Z,21.27
2018-12-16T08:42:14.308Z,22.20
2018-12-16T08:44:48.680Z,21.37
2018-12-16T08:47:22.995Z,22.90
2018-12-16T08:49:57.301Z,19.67
2018-12-16T08:52:31.597Z,22.80
2018-12-16T08:55:07.312Z,17.33
2018-12-16T08:57:50.648Z,18.13
2018-12-16T09:00:26.191Z,20.73
2018-12-16T09:03:03.781Z,17.60
2018-12-16T09:05:38.124Z,18.13
2018-12-16T09:08:12.440Z,19.67
2018-12-16T09:10:46.783Z,17.83
2018-12-16T09:13:26.752Z,19.43
2018-12-16T09:16:06.688Z,19.07
2018-12-16T09:18:58.383Z,19.60
2018-12-16T09:21:40.262Z,21.30
2018-12-16T09:24:14.604Z,17.60
2018-12-16T09:26:48.972Z,18.07
2018-12-16T09:29:25.971Z,16.47
2018-12-16T09:32:00.496Z,18.57
2018-12-16T09:34:34.826Z,17.60
2018-12-16T09:37:09.112Z,15.63
2018-12-16T09:39:43.411Z,36.77
2018-12-16T09:42:17.759Z,20.37
2018-12-16T09:44:52.200Z,18.33
2018-12-16T09:47:27.769Z,15.70
2018-12-16T09:50:02.078Z,15.10
2018-12-16T09:52:38.364Z,16.13
2018-12-16T09:55:12.669Z,17.40
2018-12-16T09:57:46.979Z,17.43
2018-12-16T10:00:21.487Z,15.37
2018-12-16T10:03:05.039Z,16.93
2018-12-16T10:05:39.595Z,18.57
2018-12-16T10:08:22.835Z,16.03
2018-12-16T10:10:57.146Z,15.27
2018-12-16T10:13:31.532Z,15.37
2018-12-16T10:16:05.949Z,14.57
2018-12-16T10:18:40.290Z,17.60
2018-12-16T10:21:14.628Z,15.53
2018-12-16T10:23:48.923Z,15.27
2018-12-16T10:26:23.534Z,13.57
2018-12-16T10:28:57.945Z,14.97
2018-12-16T10:31:32.355Z,15.47
2018-12-16T10:34:13.234Z,14.70
2018-12-16T10:36:47.542Z,14.60
2018-12-16T10:39:21.969Z,20.30
2018-12-16T10:41:56.296Z,16.17
2018-12-16T10:44:30.743Z,15.77
2018-12-16T10:47:05.111Z,15.37
2018-12-16T10:49:39.438Z,13.87
2018-12-16T10:52:13.917Z,15.77
2018-12-16T10:54:48.264Z,15.47
2018-12-16T10:57:22.729Z,12.97
2018-12-16T10:59:57.116Z,15.40
2018-12-16T11:02:32.373Z,15.47
2018-12-16T11:05:06.966Z,13.40
2018-12-16T11:07:41.330Z,14.20
2018-12-16T11:10:15.850Z,12.83
2018-12-16T11:12:52.921Z,13.67
2018-12-16T11:15:27.427Z,14.07
2018-12-16T11:18:02.648Z,14.90
2018-12-16T11:20:37.057Z,14.90
2018-12-16T11:23:11.599Z,14.77
2018-12-16T11:25:49.315Z,13.87
2018-12-16T11:28:24.808Z,14.77
2018-12-16T11:30:59.255Z,14.13
2018-12-16T11:33:33.648Z,13.50
2018-12-16T11:36:08.202Z,13.53
2018-12-16T11:38:45.428Z,15.27
2018-12-16T11:41:19.845Z,14.40
2018-12-16T11:43:54.307Z,17.10
2018-12-16T11:46:28.682Z,14.83
2018-12-16T11:49:03.111Z,14.47
2018-12-16T11:51:37.959Z,14.27
2018-12-16T11:54:12.414Z,17.43
2018-12-16T11:56:46.917Z,15.73
2018-12-16T11:59:21.309Z,17.73
2018-12-16T12:01:55.752Z,16.23
2018-12-16T12:04:30.219Z,16.87
2018-12-16T12:07:04.713Z,14.83
2018-12-16T12:09:39.135Z,15.97
2018-12-16T12:12:13.525Z,17.73
2018-12-16T12:14:47.918Z,18.70
2018-12-16T12:17:22.365Z,16.37
2018-12-16T12:19:56.767Z,15.90
2018-12-16T12:22:31.199Z,16.70
2018-12-16T12:25:06.288Z,15.90
2018-12-16T12:27:40.700Z,18.70
2018-12-16T12:30:15.115Z,17.90
2018-12-16T12:32:49.437Z,17.83
2018-12-16T12:35:23.914Z,17.50
2018-12-16T12:37:59.685Z,20.07
2018-12-16T12:40:34.024Z,17.67
2018-12-16T12:43:08.320Z,19.13
2018-12-16T12:45:42.649Z,17.17
2018-12-16T12:48:16.967Z,16.40
2018-12-16T12:50:51.395Z,16.03
2018-12-16T12:53:44.782Z,18.07
2018-12-16T12:56:19.523Z,18.63
2018-12-16T12:59:04.419Z,17.03
2018-12-16T13:01:39.471Z,19.07
2018-12-16T13:04:15.080Z,18.40
2018-12-16T13:06:49.431Z,18.60
2018-12-16T13:09:24.491Z,19.90
2018-12-16T13:11:58.831Z,18.20
2018-12-16T13:14:33.191Z,19.83
2018-12-16T13:17:07.644Z,18.53
2018-12-16T13:19:41.959Z,19.43
2018-12-16T13:22:16.299Z,19.33
2018-12-16T13:25:01.773Z,17.10
2018-12-16T13:27:36.137Z,19.00
2018-12-16T13:30:10.577Z,18.80
2018-12-16T13:32:44.916Z,16.40
2018-12-16T13:35:19.217Z,19.33
2018-12-16T13:37:53.525Z,17.23
2018-12-16T13:40:27.957Z,20.13
2018-12-16T13:43:02.363Z,19.63
2018-12-16T13:45:36.665Z,17.77
2018-12-16T13:48:10.969Z,21.03
2018-12-16T13:50:45.371Z,18.23
2018-12-16T13:53:19.691Z,19.77
2018-12-16T13:55:54.024Z,20.33
2018-12-16T13:58:28.521Z,27.33
2018-12-16T14:01:02.837Z,23.43
2018-12-16T14:03:37.158Z,18.97
2018-12-16T14:06:11.521Z,22.07
2018-12-16T14:08:45.931Z,18.63
2018-12-16T14:11:20.230Z,17.43
2018-12-16T14:13:54.674Z,18.27
2018-12-16T14:16:29.079Z,19.00
2018-12-16T14:19:03.404Z,19.57
2018-12-16T14:21:37.725Z,17.70
2018-12-16T14:24:12.156Z,19.27
2018-12-16T14:26:46.534Z,18.93
2018-12-16T14:29:20.839Z,24.23
2018-12-16T14:31:56.167Z,20.70
2018-12-16T14:34:30.484Z,18.27
2018-12-16T14:37:04.803Z,18.00
2018-12-16T14:39:39.132Z,22.60
2018-12-16T14:42:13.482Z,18.57
2018-12-16T14:44:47.795Z,19.00
2018-12-16T14:47:22.116Z,18.90
2018-12-16T14:49:56.452Z,20.50
2018-12-16T14:52:30.984Z,18.73
2018-12-16T14:55:06.603Z,16.60
2018-12-16T14:57:41.005Z,18.67
2018-12-16T15:00:15.434Z,19.80
2018-12-16T15:02:49.725Z,19.87
2018-12-16T15:05:23.987Z,18.90
2018-12-16T15:07:58.317Z,19.20
2018-12-16T15:10:32.569Z,19.57
2018-12-16T15:13:06.922Z,18.97
2018-12-16T15:15:41.191Z,19.53
2018-12-16T15:18:15.534Z,22.23
2018-12-16T15:20:49.949Z,21.20
2018-12-16T15:23:24.258Z,19.57
2018-12-16T15:26:02.037Z,21.13
2018-12-16T15:28:34.882Z,21.17
2018-12-16T15:31:09.198Z,21.60
2018-12-16T15:33:43.600Z,19.67
2018-12-16T15:36:17.941Z,20.23
2018-12-16T15:38:52.255Z,22.47
2018-12-16T15:41:26.563Z,21.00
2018-12-16T15:44:00.886Z,20.60
2018-12-16T15:46:35.439Z,21.40
2018-12-16T15:49:09.717Z,22.17
2018-12-16T15:51:44.035Z,21.23
2018-12-16T15:54:18.486Z,23.03
2018-12-16T15:56:52.851Z,18.37
2018-12-16T15:59:27.152Z,19.40
2018-12-16T16:02:01.467Z,22.40
2018-12-16T16:04:35.804Z,22.43
2018-12-16T16:07:10.161Z,21.43
2018-12-16T16:09:44.516Z,20.83
2018-12-16T16:12:18.827Z,22.57
2018-12-16T16:14:53.135Z,21.83
2018-12-16T16:17:27.486Z,18.77
2018-12-16T16:20:01.779Z,22.00
2018-12-16T16:22:36.152Z,23.07
2018-12-16T16:25:11.247Z,23.80
2018-12-16T16:27:45.643Z,19.57
2018-12-16T16:30:19.942Z,21.33
2018-12-16T16:32:56.696Z,23.03
2018-12-16T16:35:31.573Z,19.33
2018-12-16T16:38:12.433Z,22.60
2018-12-16T16:40:49.512Z,20.80
2018-12-16T16:43:25.035Z,24.70
2018-12-16T16:45:59.396Z,23.23
2018-12-16T16:48:33.712Z,20.47
2018-12-16T16:51:08.487Z,21.40
2018-12-16T16:53:47.084Z,21.70
2018-12-16T16:56:23.102Z,23.40
2018-12-16T16:58:57.675Z,20.87
2018-12-16T17:01:32.708Z,22.37
2018-12-16T17:04:07.107Z,23.87
2018-12-16T17:06:50.839Z,23.10
2018-12-16T17:09:33.249Z,21.97
2018-12-16T17:12:09.938Z,22.53
2018-12-16T17:14:50.203Z,22.77
2018-12-16T17:17:24.838Z,22.00
2018-12-16T17:20:00.982Z,22.83
2018-12-16T17:22:46.128Z,23.27
2018-12-16T17:25:20.496Z,21.27
2018-12-16T17:27:54.867Z,22.00
2018-12-16T17:30:29.359Z,21.70
2018-12-16T17:33:08.569Z,22.37
2018-12-16T17:35:43.005Z,22.03
2018-12-16T17:38:20.975Z,21.40
2018-12-16T17:40:55.684Z,24.00
2018-12-16T17:43:33.177Z,23.80
2018-12-16T17:46:08.576Z,22.47
2018-12-16T17:48:43.252Z,23.07
2018-12-16T17:51:17.985Z,22.80
2018-12-16T17:53:53.650Z,22.47
2018-12-16T17:56:27.990Z,24.17
2018-12-16T17:59:03.153Z,24.73
2018-12-16T18:01:37.645Z,24.90
2018-12-16T18:04:11.992Z,25.37
2018-12-16T18:06:46.318Z,30.57
2018-12-16T18:09:20.625Z,26.93
2018-12-16T18:11:54.950Z,26.63
2018-12-16T18:14:29.275Z,25.60
2018-12-16T18:17:04.896Z,22.20
2018-12-16T18:19:39.249Z,24.87
2018-12-16T18:22:14.101Z,23.43
2018-12-16T18:24:48.747Z,22.33
2018-12-16T18:27:23.167Z,22.97
2018-12-16T18:29:57.452Z,21.17
2018-12-16T18:32:31.736Z,24.97
2018-12-16T18:35:06.595Z,21.53
2018-12-16T18:37:41.068Z,25.27
2018-12-16T18:40:15.445Z,25.47
2018-12-16T18:42:49.896Z,24.07
2018-12-16T18:45:24.256Z,24.97
2018-12-16T18:47:58.577Z,21.90
2018-12-16T18:50:32.872Z,22.47
2018-12-16T18:53:07.203Z,23.97
2018-12-16T18:55:41.528Z,22.83
2018-12-16T18:58:15.875Z,22.40
2018-12-16T19:00:50.172Z,23.33
2018-12-16T19:03:24.490Z,25.20
2018-12-16T19:05:58.897Z,25.03
2018-12-16T19:08:33.237Z,23.37
2018-12-16T19:11:07.557Z,28.47
2018-12-16T19:13:41.900Z,25.00
2018-12-16T19:16:16.141Z,26.40
2018-12-16T19:18:50.733Z,24.73
2018-12-16T19:21:25.016Z,27.00
2018-12-16T19:23:59.360Z,24.07
2018-12-16T19:26:33.675Z,25.87
2018-12-16T19:29:08.146Z,23.53
2018-12-16T19:31:42.440Z,29.10
2018-12-16T19:34:16.707Z,30.40
2018-12-16T19:36:51.055Z,32.57
2018-12-16T19:39:25.373Z,32.70
2018-12-16T19:41:59.680Z,27.77
2018-12-16T19:44:33.995Z,27.07
2018-12-16T19:47:08.311Z,24.90
2018-12-16T19:49:42.934Z,28.20
2018-12-16T19:52:17.669Z,26.63
2018-12-16T19:54:52.656Z,23.73
2018-12-16T19:57:27.027Z,24.73
2018-12-16T20:00:01.358Z,26.23
2018-12-16T20:02:35.785Z,23.03
2018-12-16T20:05:15.483Z,23.47
2018-12-16T20:07:50.433Z,23.13
2018-12-16T20:10:24.796Z,26.13
2018-12-16T20:12:59.117Z,26.60
2018-12-16T20:15:33.449Z,23.27
2018-12-16T20:18:08.664Z,25.03
2018-12-16T20:20:42.982Z,24.60
2018-12-16T20:23:17.291Z,25.17
2018-12-16T20:25:51.623Z,24.60
2018-12-16T20:28:26.258Z,24.47
2018-12-16T20:31:00.912Z,24.50
2018-12-16T20:33:35.639Z,24.23
2018-12-16T20:36:10.076Z,24.87
2018-12-16T20:38:44.395Z,25.67
2018-12-16T20:41:18.923Z,26.23
2018-12-16T20:43:53.315Z,24.03
2018-12-16T20:46:27.746Z,23.20
2018-12-16T20:49:02.067Z,24.83
2018-12-16T20:51:36.446Z,25.57
2018-12-16T20:54:10.997Z,23.60
2018-12-16T20:56:45.332Z,25.00
2018-12-16T20:59:19.651Z,26.33
2018-12-16T21:01:54.003Z,25.67
2018-12-16T21:04:28.414Z,26.07
2018-12-16T21:07:02.880Z,24.97
2018-12-16T21:09:37.183Z,26.07
2018-12-16T21:12:16.844Z,25.67
2018-12-16T21:14:56.548Z,26.77
2018-12-16T21:17:36.247Z,28.47
2018-12-16T21:20:10.581Z,25.90
2018-12-16T21:22:44.907Z,28.27
2018-12-16T21:25:19.212Z,31.90
2018-12-16T21:27:53.541Z,28.63
2018-12-16T21:30:27.928Z,29.40
2018-12-16T21:33:02.267Z,29.10
2018-12-16T21:35:36.695Z,26.23
2018-12-16T21:38:11.024Z,28.57
2018-12-16T21:40:45.365Z,29.43
2018-12-16T21:43:19.619Z,30.20
2018-12-16T21:45:54.077Z,29.63
2018-12-16T21:48:28.331Z,30.30
2018-12-16T21:51:02.765Z,30.27
2018-12-16T21:53:37.107Z,31.00
2018-12-16T21:56:11.433Z,27.60
2018-12-16T21:58:45.853Z,33.30
2018-12-16T22:01:20.171Z,33.10
2018-12-16T22:03:54.504Z,31.30
2018-12-16T22:06:28.819Z,28.47
2018-12-16T22:09:03.561Z,31.00
2018-12-16T22:11:37.846Z,34.50
2018-12-16T22:14:12.167Z,35.43
2018-12-16T22:16:46.615Z,36.00
2018-12-16T22:19:20.935Z,35.43
2018-12-16T22:21:55.244Z,35.27
2018-12-16T22:24:29.552Z,36.87
2018-12-16T22:27:03.899Z,36.77
2018-12-16T22:29:38.209Z,31.03
2018-12-16T22:32:12.504Z,33.10
2018-12-16T22:34:46.785Z,31.90
2018-12-16T22:37:21.420Z,33.87
2018-12-16T22:39:55.832Z,39.07
2018-12-16T22:42:30.162Z,36.03
2018-12-16T22:45:05.502Z,38.23
2018-12-16T22:47:39.776Z,32.50
2018-12-16T22:50:20.547Z,33.43
2018-12-16T22:52:54.839Z,36.17
2018-12-16T22:55:29.169Z,39.93
2018-12-16T22:58:03.444Z,37.27
2018-12-16T23:00:42.014Z,37.30
2018-12-16T23:03:16.334Z,34.23
2018-12-16T23:05:50.598Z,39.20
2018-12-16T23:08:24.956Z,36.67
2018-12-16T23:10:59.273Z,38.60
2018-12-16T23:13:33.702Z,37.27
2018-12-16T23:16:08.219Z,38.60
2018-12-16T23:18:42.987Z,35.27
2018-12-16T23:21:17.542Z,39.27
2018-12-16T23:23:51.873Z,39.77
2018-12-16T23:26:26.411Z,37.03
2018-12-16T23:29:00.715Z,36.83
2018-12-16T23:31:35.172Z,40.97
2018-12-16T23:34:09.465Z,42.67
2018-12-16T23:36:43.783Z,39.50
2018-12-16T23:39:18.095Z,38.67
2018-12-16T23:41:52.415Z,40.93
2018-12-16T23:44:26.733Z,38.47
2018-12-16T23:47:01.032Z,42.67
2018-12-16T23:49:35.323Z,43.73
2018-12-16T23:52:09.586Z,40.20
2018-12-16T23:54:44.520Z,36.10
2018-12-16T23:57:18.993Z,41.07
2018-12-16T23:59:53.560Z,42.13
